Time;durP1;ratioP1;P1;durP2;ratioP2;P2;SDS_P1;SDS_P2;PMS_P1;PMS_P2;Temp;Humidity;BMP_temperature;BMP_pressure;BME280_temperature;BME280_humidity;BME280_pressure;Samples;Min_cycle;Max_cycle;Signal;HPM_P1;HPM_P2
2024/02/22 00:02:09;;;;;;;;;2.00;0.33;;;;;22.71;46.23;100033.63;6399839;22;45318;-76
2024/02/22 00:04:34;;;;;;;;;1.00;1.00;;;;;22.63;45.62;100010.78;6400388;22;55069;-75
2024/02/22 00:06:59;;;;;;;;;0.33;0.33;;;;;22.65;46.13;100015.84;6399807;22;56341;-75
2024/02/22 00:09:25;;;;;;;;;1.67;1.00;;;;;22.65;45.77;100014.03;6400282;22;61344;-75
2024/02/22 00:11:50;;;;;;;;;0.67;0.67;;;;;22.69;45.60;100014.44;6400178;22;45986;-75
2024/02/22 00:14:16;;;;;;;;;2.33;1.00;;;;;22.67;45.51;100011.97;6400335;22;45318;-75
2024/02/22 00:16:41;;;;;;;;;0.00;0.00;;;;;22.68;46.16;100008.31;6400172;22;45303;-75
2024/02/22 00:19:07;;;;;;;;;0.67;0.67;;;;;22.68;45.80;100002.19;6400369;22;45222;-75
2024/02/22 00:21:32;;;;;;;;;1.00;1.00;;;;;22.67;45.54;100001.38;6400156;22;58926;-74
2024/02/22 00:23:57;;;;;;;;;1.00;1.00;;;;;22.65;45.89;99997.28;6400398;22;45300;-75
2024/02/22 00:26:23;;;;;;;;;1.00;1.00;;;;;22.66;45.97;99997.09;6400831;22;45346;-75
2024/02/22 00:28:48;;;;;;;;;2.00;0.00;;;;;22.67;46.20;99996.06;6400398;22;45443;-75
2024/02/22 00:31:13;;;;;;;;;1.33;1.00;;;;;22.67;45.95;99987.28;6400219;22;45789;-76
2024/02/22 00:33:39;;;;;;;;;1.00;1.00;;;;;22.55;45.81;99971.19;6400701;22;45190;-76
2024/02/22 00:36:05;;;;;;;;;2.00;1.00;;;;;22.63;46.12;99979.78;6400998;22;45434;-76
2024/02/22 00:38:31;;;;;;;;;2.67;2.33;;;;;22.59;45.47;99967.94;6400304;22;45502;-77
2024/02/22 00:40:57;;;;;;;;;0.00;0.00;;;;;22.57;45.87;99964.69;6400124;22;47030;-75
2024/02/22 00:43:22;;;;;;;;;0.00;0.00;;;;;22.65;45.93;99974.25;6400752;22;49055;-75
2024/02/22 00:45:47;;;;;;;;;1.00;1.00;;;;;22.66;46.12;99969.78;6399974;22;49410;-75
2024/02/22 00:48:12;;;;;;;;;0.00;0.00;;;;;22.65;45.61;99960.19;6400557;22;45341;-75
2024/02/22 00:50:38;;;;;;;;;0.00;0.00;;;;;22.55;46.25;99940.22;6400364;22;53506;-76
2024/02/22 00:53:03;;;;;;;;;0.33;0.00;;;;;22.62;46.13;99948.16;6400288;22;45337;-76
2024/02/22 00:55:28;;;;;;;;;0.00;0.00;;;;;22.63;45.48;99933.88;6400897;22;45494;-76
2024/02/22 00:57:54;;;;;;;;;0.00;0.00;;;;;22.63;45.97;99944.47;6400234;22;45440;-75
2024/02/22 01:00:19;;;;;;;;;1.00;0.67;;;;;22.56;45.34;99927.78;6399947;22;52855;-76
2024/02/22 01:02:44;;;;;;;;;0.00;0.00;;;;;22.63;45.94;99936.53;6371817;22;45333;-75
2024/02/22 01:05:10;;;;;;;;;0.33;0.33;;;;;22.53;46.02;99915.75;6400330;22;45264;-75
2024/02/22 01:07:35;;;;;;;;;0.00;0.00;;;;;22.62;45.92;99924.28;6400602;22;45280;-74
2024/02/22 01:10:01;;;;;;;;;0.00;0.00;;;;;22.63;45.59;99928.56;6400851;22;45337;-76
2024/02/22 01:12:27;;;;;;;;;0.00;0.00;;;;;22.63;45.76;99923.28;6400562;22;45264;-77
2024/02/22 01:14:52;;;;;;;;;1.33;1.00;;;;;22.62;45.85;99925.09;6400259;22;45707;-75
2024/02/22 01:17:18;;;;;;;;;0.67;0.67;;;;;22.62;45.84;99909.19;6400396;22;45154;-75
2024/02/22 01:19:46;;;;;;;;;0.00;0.00;;;;;22.60;45.35;99911.25;6400524;22;46063;-75
2024/02/22 01:22:12;;;;;;;;;1.00;1.00;;;;;22.59;45.55;99909.59;6371729;22;45372;-76
2024/02/22 01:24:37;;;;;;;;;0.00;0.00;;;;;22.62;45.61;99913.69;6400663;22;45106;-75
2024/02/22 01:27:06;;;;;;;;;1.00;1.00;;;;;22.56;45.45;99895.97;6400461;22;45505;-76
2024/02/22 01:29:31;;;;;;;;;0.00;0.00;;;;;22.48;45.92;99876.59;6399479;22;46827;-76
2024/02/22 01:31:56;;;;;;;;;0.00;0.00;;;;;22.60;45.31;99890.03;6399986;22;45329;-75
2024/02/22 01:34:22;;;;;;;;;1.00;1.00;;;;;22.59;45.94;99885.75;6400419;22;45247;-75
2024/02/22 01:36:47;;;;;;;;;1.00;1.00;;;;;22.58;45.83;99873.53;6400777;22;45295;-74
2024/02/22 01:39:13;;;;;;;;;0.00;0.00;;;;;22.60;45.58;99875.97;6399915;22;46194;-76
2024/02/22 01:41:38;;;;;;;;;0.00;0.00;;;;;22.60;45.53;99862.72;6400539;22;45220;-76
2024/02/22 01:44:03;;;;;;;;;0.00;0.00;;;;;22.50;45.89;99847.25;6400395;22;45859;-76
2024/02/22 01:46:29;;;;;;;;;1.00;1.00;;;;;22.61;45.31;99848.44;6400097;22;45286;-76
2024/02/22 01:48:56;;;;;;;;;0.00;0.00;;;;;22.55;45.74;99846.59;6399766;22;46248;-75
2024/02/22 01:51:21;;;;;;;;;0.00;0.00;;;;;22.52;45.38;99835.41;6399974;22;45281;-76
2024/02/22 01:53:49;;;;;;;;;0.33;0.33;;;;;22.60;45.56;99846.81;6400418;22;45350;-76
2024/02/22 01:56:17;;;;;;;;;0.00;0.00;;;;;22.54;45.50;99824.59;6400066;22;45737;-75
2024/02/22 01:58:43;;;;;;;;;0.33;0.00;;;;;22.60;45.47;99828.25;6399790;22;46112;-75
2024/02/22 02:01:10;;;;;;;;;1.00;0.00;;;;;22.60;45.66;99825.59;6399775;22;45184;-74
2024/02/22 02:03:36;;;;;;;;;1.00;1.00;;;;;22.60;45.38;99818.47;6400401;22;45208;-76
2024/02/22 02:06:02;;;;;;;;;0.00;0.00;;;;;22.52;45.66;99797.47;6399958;22;45415;-76
2024/02/22 02:08:28;;;;;;;;;0.00;0.00;;;;;22.54;45.50;99800.72;6399532;22;47026;-75
2024/02/22 02:10:53;;;;;;;;;0.00;0.00;;;;;22.57;45.82;99802.16;6399366;22;45245;-75
2024/02/22 02:13:19;;;;;;;;;1.00;0.33;;;;;22.44;45.44;99779.16;6400092;22;45267;-76
2024/02/22 02:15:44;;;;;;;;;0.00;0.00;;;;;22.46;45.54;99783.22;6400369;22;45394;-75
2024/02/22 02:18:09;;;;;;;;;0.00;0.00;;;;;22.57;45.74;99792.38;6399690;22;46110;-75
2024/02/22 02:20:49;;;;;;;;;0.00;0.00;;;;;22.57;45.91;99784.41;6371338;22;45226;-75
2024/02/22 02:23:37;;;;;;;;;0.00;0.00;;;;;22.57;45.44;99778.28;6400449;22;45170;-75
2024/02/22 02:26:04;;;;;;;;;1.00;1.00;;;;;22.57;45.26;99765.03;6371566;22;45541;-75
2024/02/22 02:28:29;;;;;;;;;1.00;1.00;;;;;22.55;45.50;99754.66;6399002;22;46976;-75
2024/02/22 02:30:54;;;;;;;;;0.00;0.00;;;;;22.54;45.41;99750.38;6399591;22;45307;-75
2024/02/22 02:33:20;;;;;;;;;0.00;0.00;;;;;22.56;45.32;99750.16;6400425;22;45196;-75
2024/02/22 02:35:45;;;;;;;;;2.00;0.00;;;;;22.55;45.81;99738.75;6400064;22;45393;-75
2024/02/22 02:38:10;;;;;;;;;2.00;1.00;;;;;22.56;45.28;99734.25;6399883;22;45922;-76
2024/02/22 02:40:36;;;;;;;;;0.00;0.00;;;;;22.54;45.62;99718.56;6400205;22;45251;-76
2024/02/22 02:43:01;;;;;;;;;0.00;0.00;;;;;22.56;45.64;99711.19;6399775;22;45288;-76
2024/02/22 02:45:27;;;;;;;;;0.00;0.00;;;;;22.46;45.64;99694.94;6370619;22;45620;-75
2024/02/22 02:47:52;;;;;;;;;1.00;0.00;;;;;22.48;45.39;99691.06;6400033;22;46121;-74
2024/02/22 02:50:18;;;;;;;;;0.67;0.67;;;;;22.49;45.47;99682.09;6399575;22;45390;-74
2024/02/22 02:52:43;;;;;;;;;0.33;0.33;;;;;22.56;45.33;99687.34;6399794;22;45567;-74
2024/02/22 02:55:12;;;;;;;;;0.67;0.33;;;;;22.44;45.30;99658.06;6400014;22;45360;-76
2024/02/22 02:57:38;;;;;;;;;0.00;0.00;;;;;22.53;45.60;99669.22;6399114;22;46192;-74
2024/02/22 03:00:04;;;;;;;;;0.67;0.00;;;;;22.33;45.18;99626.94;6399522;22;45400;-76
2024/02/22 03:02:30;;;;;;;;;0.00;0.00;;;;;22.56;45.20;99662.69;6399550;22;45311;-77
2024/02/22 03:04:56;;;;;;;;;0.67;0.67;;;;;22.56;45.81;99657.41;6399487;22;45481;-76
2024/02/22 03:07:21;;;;;;;;;0.00;0.00;;;;;22.55;45.38;99648.63;6398988;22;51922;-76
2024/02/22 03:09:46;;;;;;;;;0.00;0.00;;;;;22.55;45.84;99645.16;6399763;22;45266;-76
2024/02/22 03:12:11;;;;;;;;;0.00;0.00;;;;;22.43;45.21;99621.97;6399687;22;45749;-75
2024/02/22 03:14:37;;;;;;;;;1.33;0.00;;;;;22.53;45.90;99624.16;6399320;22;57641;-75
2024/02/22 03:17:02;;;;;;;;;0.00;0.00;;;;;22.53;45.30;99618.88;6399223;22;46022;-76
2024/02/22 03:19:28;;;;;;;;;0.00;0.00;;;;;22.51;45.82;99607.66;6399899;22;45173;-75
2024/02/22 03:21:53;;;;;;;;;1.00;0.00;;;;;22.53;45.27;99608.28;6399531;22;45263;-76
2024/02/22 03:24:19;;;;;;;;;0.00;0.00;;;;;22.54;45.21;99601.91;6399385;22;45439;-75
2024/02/22 03:26:46;;;;;;;;;0.00;0.00;;;;;22.45;45.27;99589.97;6398886;22;50764;-75
2024/02/22 03:29:12;;;;;;;;;0.67;0.67;;;;;22.53;45.39;99600.31;6399198;22;45228;-75
2024/02/22 03:31:37;;;;;;;;;0.00;0.00;;;;;22.54;45.20;99591.31;6399728;22;45194;-75
2024/02/22 03:34:03;;;;;;;;;0.00;0.00;;;;;22.53;45.46;99597.66;6399661;22;45444;-75
2024/02/22 03:36:28;;;;;;;;;0.67;0.00;;;;;22.54;45.20;99591.31;6399289;22;54248;-75
2024/02/22 03:38:53;;;;;;;;;0.00;0.00;;;;;22.53;45.44;99589.72;6399357;22;45285;-76
2024/02/22 03:41:24;;;;;;;;;1.00;0.00;;;;;22.53;45.37;99579.13;6398901;22;45245;-75
2024/02/22 03:43:49;;;;;;;;;0.00;0.00;;;;;22.44;45.71;99567.94;6399207;22;45224;-75
2024/02/22 03:46:14;;;;;;;;;0.00;0.00;;;;;22.52;45.69;99580.13;6399350;22;45270;-75
2024/02/22 03:48:41;;;;;;;;;0.00;0.00;;;;;22.52;45.40;99574.81;6398945;22;45220;-75
2024/02/22 03:51:07;;;;;;;;;0.67;0.67;;;;;22.46;45.32;99560.59;6399294;22;45354;-75
2024/02/22 03:53:32;;;;;;;;;0.00;0.00;;;;;22.51;45.09;99555.44;6399482;22;45226;-75
2024/02/22 03:55:57;;;;;;;;;0.00;0.00;;;;;22.52;45.25;99550.97;6398979;22;45201;-76
2024/02/22 03:58:22;;;;;;;;;0.00;0.00;;;;;22.51;45.32;99542.19;6400802;22;45423;-75
2024/02/22 04:00:48;;;;;;;;;0.00;0.00;;;;;22.52;45.22;99540.38;6400736;22;45322;-75
2024/02/22 04:03:13;;;;;;;;;0.00;0.00;;;;;22.50;45.26;99532.66;6399958;22;63414;-74
2024/02/22 04:05:39;;;;;;;;;1.00;1.00;;;;;22.52;45.31;99529.75;6400290;22;46422;-74
2024/02/22 04:08:04;;;;;;;;;0.00;0.00;;;;;22.51;45.23;99526.31;6400360;22;45312;-75
2024/02/22 04:10:30;;;;;;;;;1.33;1.00;;;;;22.46;45.35;99512.06;6400297;22;45216;-75
2024/02/22 04:12:55;;;;;;;;;0.33;0.00;;;;;22.50;45.70;99519.41;6400518;22;45390;-75
2024/02/22 04:15:20;;;;;;;;;0.00;0.00;;;;;22.48;45.31;99500.22;6400355;22;46177;-76
2024/02/22 04:17:46;;;;;;;;;1.00;1.00;;;;;22.38;45.31;99479.50;6400206;22;48085;-75
2024/02/22 04:20:12;;;;;;;;;0.33;0.33;;;;;22.51;45.09;99494.50;6400553;22;45246;-76
2024/02/22 04:22:48;;;;;;;;;0.00;0.00;;;;;22.52;45.37;99490.81;6400561;22;45367;-76
2024/02/22 04:25:15;;;;;;;;;0.00;0.00;;;;;22.52;45.08;99484.72;6400320;22;46265;-75
2024/02/22 04:27:40;;;;;;;;;0.00;0.00;;;;;22.52;45.54;99482.88;6400590;22;45300;-76
2024/02/22 04:30:06;;;;;;;;;0.00;0.00;;;;;22.45;45.68;99460.91;6400951;22;45789;-75
2024/02/22 04:32:32;;;;;;;;;0.00;0.00;;;;;22.11;45.73;99404.72;6400997;22;45473;-75
2024/02/22 04:34:57;;;;;;;;;0.00;0.00;;;;;22.52;45.52;99460.84;6400681;22;46131;-76
2024/02/22 04:37:22;;;;;;;;;1.00;1.00;;;;;22.52;45.44;99464.31;6400856;22;45220;-75
2024/02/22 04:39:48;;;;;;;;;1.00;0.00;;;;;22.43;45.16;99433.81;6371635;22;45323;-75
2024/02/22 04:42:15;;;;;;;;;1.00;0.00;;;;;22.51;45.20;99430.88;6400398;22;45462;-75
2024/02/22 04:44:40;;;;;;;;;0.00;0.00;;;;;22.51;45.74;99422.94;6400274;22;46360;-75
2024/02/22 04:47:05;;;;;;;;;0.00;0.00;;;;;22.51;45.06;99414.97;6400043;22;45306;-76
2024/02/22 04:49:31;;;;;;;;;0.00;0.00;;;;;22.49;45.10;99414.38;6400526;22;45358;-76
2024/02/22 04:51:57;;;;;;;;;0.33;0.00;;;;;22.46;45.88;99409.53;6400317;22;45406;-75
2024/02/22 04:54:22;;;;;;;;;0.00;0.00;;;;;22.51;45.29;99414.16;6399993;22;46112;-75
2024/02/22 04:56:47;;;;;;;;;1.00;0.00;;;;;22.50;45.39;99394.81;6400495;22;45327;-75
2024/02/22 04:59:13;;;;;;;;;0.33;0.33;;;;;22.40;45.24;99374.09;6399876;22;53801;-75
2024/02/22 05:01:39;;;;;;;;;0.00;0.00;;;;;22.45;45.74;99377.94;6400838;22;45200;-76
2024/02/22 05:04:05;;;;;;;;;0.00;0.00;;;;;22.51;45.52;99379.72;6400084;22;46078;-75
2024/02/22 05:06:31;;;;;;;;;0.00;0.00;;;;;22.43;45.52;99366.75;6400242;22;45480;-76
2024/02/22 05:08:56;;;;;;;;;0.00;0.00;;;;;22.44;45.35;99357.75;6398730;22;48860;-75
2024/02/22 05:11:22;;;;;;;;;0.00;0.00;;;;;22.49;45.03;99365.88;6400336;22;45168;-75
2024/02/22 05:13:50;;;;;;;;;0.00;0.00;;;;;22.50;45.24;99360.38;6400513;22;45850;-75
2024/02/22 05:16:15;;;;;;;;;0.00;0.00;;;;;22.37;45.57;99332.16;6400064;22;45265;-76
2024/02/22 05:18:40;;;;;;;;;0.00;0.00;;;;;22.51;45.39;99342.59;6371847;22;45235;-75
2024/02/22 05:21:07;;;;;;;;;0.33;0.33;;;;;22.44;45.02;99331.28;6399790;22;61765;-75
2024/02/22 05:23:32;;;;;;;;;1.00;1.00;;;;;22.46;45.35;99331.84;6399896;22;45975;-75
2024/02/22 05:25:57;;;;;;;;;0.00;0.00;;;;;22.34;44.99;99310.59;6400687;22;45248;-76
2024/02/22 05:28:23;;;;;;;;;1.00;0.00;;;;;22.47;45.50;99321.03;6400469;22;45177;-76
2024/02/22 05:30:49;;;;;;;;;0.00;0.00;;;;;22.49;45.39;99311.03;6401062;22;45542;-76
2024/02/22 05:33:14;;;;;;;;;0.00;0.00;;;;;22.48;45.25;99312.06;6400038;22;46281;-77
2024/02/22 05:35:39;;;;;;;;;0.00;0.00;;;;;22.43;45.05;99292.56;6399893;22;45380;-75
2024/02/22 05:38:05;;;;;;;;;0.00;0.00;;;;;22.46;45.42;99297.41;6400675;22;45321;-75
2024/02/22 05:40:30;;;;;;;;;0.00;0.00;;;;;22.39;45.61;99281.59;6400603;22;45241;-77
2024/02/22 05:42:55;;;;;;;;;0.00;0.00;;;;;22.50;45.23;99295.94;6399472;22;52911;-75
2024/02/22 05:45:45;;;;;;;;;0.00;0.00;;;;;22.50;45.37;99291.47;6400281;22;45215;-75
2024/02/22 05:48:10;;;;;;;;;0.00;0.00;;;;;22.50;45.55;99280.84;6400227;22;45299;-75
2024/02/22 05:50:36;;;;;;;;;0.00;0.00;;;;;22.50;45.23;99282.69;6399638;22;45288;-75
2024/02/22 05:53:01;;;;;;;;;0.00;0.00;;;;;22.30;45.23;99251.94;6400283;22;45275;-76
2024/02/22 05:55:27;;;;;;;;;0.00;0.00;;;;;22.45;45.23;99269.28;6400528;22;45334;-75
2024/02/22 05:57:53;;;;;;;;;1.33;0.00;;;;;22.44;45.49;99267.66;6400375;22;45243;-75
2024/02/22 06:00:19;;;;;;;;;0.00;0.00;;;;;22.36;45.16;99234.31;6400318;22;45348;-75
2024/02/22 06:02:44;;;;;;;;;1.00;0.00;;;;;22.49;45.09;99228.06;6400410;22;46192;-73
2024/02/22 06:05:10;;;;;;;;;0.33;0.33;;;;;22.45;45.51;99216.28;6399394;22;45242;-76
2024/02/22 06:07:35;;;;;;;;;0.33;0.33;;;;;22.49;45.50;99217.47;6400235;22;45122;-76
2024/02/22 06:10:00;;;;;;;;;0.00;0.00;;;;;22.49;45.24;99214.81;6399997;22;52968;-76
2024/02/22 06:12:25;;;;;;;;;0.00;0.00;;;;;22.46;45.34;99209.94;6399655;22;47109;-75
2024/02/22 06:14:51;;;;;;;;;0.00;0.00;;;;;22.49;45.54;99225.41;6400312;22;45244;-75
2024/02/22 06:17:16;;;;;;;;;0.00;0.00;;;;;22.43;45.26;99208.56;6399669;22;54660;-75
2024/02/22 06:19:41;;;;;;;;;0.00;0.00;;;;;22.49;45.65;99206.84;6399225;22;45403;-76
2024/02/22 06:22:07;;;;;;;;;0.00;0.00;;;;;22.48;45.56;99203.38;6400122;22;54222;-75
2024/02/22 06:24:32;;;;;;;;;0.00;0.00;;;;;22.46;45.40;99202.81;6399716;22;45221;-75
2024/02/22 06:26:57;;;;;;;;;0.00;0.00;;;;;22.40;45.22;99180.66;6400019;22;45774;-76
2024/02/22 06:29:22;;;;;;;;;1.00;0.00;;;;;22.37;45.69;99162.56;6399889;22;53166;-74
2024/02/22 06:31:48;;;;;;;;;0.00;0.00;;;;;22.44;45.40;99164.31;6399894;22;49708;-75
2024/02/22 06:34:13;;;;;;;;;1.00;0.00;;;;;22.48;45.23;99166.28;6399719;22;45250;-76
2024/02/22 06:36:38;;;;;;;;;0.00;0.00;;;;;22.48;45.55;99153.03;6399885;22;51188;-75
2024/02/22 06:39:03;;;;;;;;;0.00;0.00;;;;;22.40;45.15;99137.47;6399947;22;45433;-74
2024/02/22 06:41:29;;;;;;;;;0.00;0.00;;;;;22.48;45.59;99141.66;6399687;22;46856;-76
2024/02/22 06:43:56;;;;;;;;;0.00;0.00;;;;;22.42;45.42;99134.59;6399648;22;45265;-76
2024/02/22 06:46:24;;;;;;;;;0.00;0.00;;;;;22.44;45.26;99140.47;6399685;22;45236;-75
2024/02/22 06:48:49;;;;;;;;;0.00;0.00;;;;;22.48;45.39;99149.59;6399074;22;45382;-75
2024/02/22 06:51:15;;;;;;;;;1.00;1.00;;;;;22.47;45.47;99138.19;6399607;22;46400;-75
2024/02/22 06:53:40;;;;;;;;;0.00;0.00;;;;;22.43;45.22;99133.56;6399556;22;45270;-75
2024/02/22 06:56:06;;;;;;;;;0.67;0.67;;;;;22.47;45.33;99124.94;6400194;22;45313;-72
2024/02/22 06:58:31;;;;;;;;;0.00;0.00;;;;;22.46;45.00;99115.34;6399555;22;45569;-76
2024/02/22 07:00:58;;;;;;;;;0.00;0.00;;;;;22.46;45.57;99107.41;6399210;22;45941;-77
2024/02/22 07:03:23;;;;;;;;;0.00;0.00;;;;;22.47;45.52;99095.78;6399213;22;45333;-76
2024/02/22 07:05:50;;;;;;;;;0.00;0.00;;;;;22.46;45.12;99090.69;6399932;22;45294;-78
2024/02/22 07:08:15;;;;;;;;;0.00;0.00;;;;;22.45;45.60;99086.44;6399137;22;45347;-78
2024/02/22 07:10:40;;;;;;;;;0.00;0.00;;;;;22.48;44.94;99075.41;6399244;22;46214;-74
2024/02/22 07:13:06;;;;;;;;;0.00;0.00;;;;;22.38;44.95;99063.50;6399914;22;45314;-72
2024/02/22 07:15:31;;;;;;;;;0.00;0.00;;;;;22.46;44.90;99075.59;6399908;22;45229;-75
2024/02/22 07:17:56;;;;;;;;;0.00;0.00;;;;;22.49;45.70;99069.06;6399699;22;45288;-74
2024/02/22 07:20:22;;;;;;;;;0.00;0.00;;;;;22.48;45.37;99060.28;6399141;22;45913;-74
2024/02/22 07:22:48;;;;;;;;;1.00;0.00;;;;;22.38;45.65;99041.47;6399901;22;45308;-74
2024/02/22 07:25:16;;;;;;;;;0.00;0.00;;;;;22.38;45.77;99028.22;6400003;22;45227;-74
2024/02/22 07:27:42;;;;;;;;;1.00;0.00;;;;;22.35;45.48;99007.50;6398309;22;45341;-74
2024/02/22 07:30:08;;;;;;;;;0.00;0.00;;;;;22.47;46.06;99028.72;6397496;22;45988;-74
2024/02/22 07:32:34;;;;;;;;;0.00;0.00;;;;;22.47;46.28;99021.59;6398546;22;45421;-75
2024/02/22 07:35:00;;;;;;;;;0.00;0.00;;;;;22.47;46.05;99018.13;6372272;22;45265;-71
2024/02/22 07:37:25;;;;;;;;;0.00;0.00;;;;;22.47;45.74;99024.25;6400638;22;45205;-72
2024/02/22 07:39:53;;;;;;;;;0.00;0.00;;;;;22.49;45.93;99024.81;6399648;22;46790;-73
2024/02/22 07:42:19;;;;;;;;;1.00;1.00;;;;;22.50;46.22;99010.53;6400542;22;45236;-73
2024/02/22 07:44:44;;;;;;;;;1.00;0.00;;;;;22.40;45.98;98987.22;6401123;22;45280;-73
2024/02/22 07:47:11;;;;;;;;;0.00;0.00;;;;;22.49;46.25;98997.50;6371701;22;45254;-73
2024/02/22 07:49:36;;;;;;;;;0.00;0.00;;;;;22.56;45.70;99000.84;6400527;22;46876;-75
2024/02/22 07:52:02;;;;;;;;;0.00;0.00;;;;;22.50;46.19;98988.53;6395515;22;45330;-75
2024/02/22 07:54:27;;;;;;;;;0.00;0.00;;;;;22.56;45.88;98981.50;6395561;22;45561;-75
2024/02/22 07:56:54;;;;;;;;;0.00;0.00;;;;;22.56;46.41;98973.56;6396312;22;45279;-74
2024/02/22 07:59:20;;;;;;;;;0.00;0.00;;;;;22.57;45.70;98975.16;6398680;22;45413;-75
2024/02/22 08:01:45;;;;;;;;;0.00;0.00;;;;;22.55;45.60;98967.44;6399232;22;45351;-75
2024/02/22 08:04:11;;;;;;;;;0.00;0.00;;;;;22.49;46.07;98950.59;6399997;22;45358;-73
2024/02/22 08:06:37;;;;;;;;;0.00;0.00;;;;;22.56;45.46;98933.81;6399256;22;45449;-75
2024/02/22 08:09:03;;;;;;;;;0.00;0.00;;;;;22.55;45.60;98922.38;6397857;22;45729;-74
2024/02/22 08:11:29;;;;;;;;;0.00;0.00;;;;;22.51;45.59;98915.91;6399960;22;45223;-75
2024/02/22 08:13:54;;;;;;;;;0.00;0.00;;;;;22.55;45.57;98921.56;6397826;22;45143;-75
2024/02/22 08:16:19;;;;;;;;;0.00;0.00;;;;;22.45;45.74;98908.91;6399336;22;45239;-75
2024/02/22 08:18:45;;;;;;;;;0.00;0.00;;;;;22.54;45.59;98919.94;6399992;22;46071;-75
2024/02/22 08:21:10;;;;;;;;;0.00;0.00;;;;;22.52;46.05;98907.75;6371164;22;45297;-75
2024/02/22 08:23:35;;;;;;;;;0.00;0.00;;;;;22.54;45.84;98904.06;6399976;22;45416;-76
2024/02/22 08:26:01;;;;;;;;;0.00;0.00;;;;;22.55;45.51;98910.97;6400220;22;45390;-75
2024/02/22 08:28:27;;;;;;;;;0.00;0.00;;;;;22.53;45.76;98895.31;6399899;22;46220;-75
2024/02/22 08:30:53;;;;;;;;;0.00;0.00;;;;;22.54;45.82;98896.91;6399550;22;45417;-75
2024/02/22 08:33:23;;;;;;;;;0.00;0.00;;;;;22.51;45.34;98892.06;6371218;22;45359;-75
2024/02/22 08:35:49;;;;;;;;;1.00;0.00;;;;;22.43;45.84;98873.88;6400107;22;45571;-75
2024/02/22 08:38:14;;;;;;;;;0.00;0.00;;;;;22.25;45.50;98846.47;6399165;22;47045;-75
2024/02/22 08:40:40;;;;;;;;;0.00;0.00;;;;;22.54;45.89;98882.84;6400388;22;45213;-73
2024/02/22 08:43:06;;;;;;;;;0.00;0.00;;;;;22.54;45.65;98872.25;6399098;22;45193;-73
2024/02/22 08:45:32;;;;;;;;;1.00;0.00;;;;;22.54;45.69;98862.47;6399459;22;45278;-75
2024/02/22 08:47:57;;;;;;;;;0.00;0.00;;;;;22.55;45.75;98868.56;6399704;22;45302;-75
2024/02/22 08:50:22;;;;;;;;;0.00;0.00;;;;;22.46;45.55;98855.66;6370203;22;61027;-75
2024/02/22 08:52:48;;;;;;;;;0.00;0.00;;;;;22.54;45.42;98866.94;6400499;22;45228;-75
2024/02/22 08:55:14;;;;;;;;;0.00;0.00;;;;;22.54;45.85;98848.41;6400003;22;45449;-75
2024/02/22 08:57:40;;;;;;;;;0.00;0.00;;;;;22.46;45.49;98831.81;6399152;22;46867;-75
2024/02/22 09:00:10;;;;;;;;;0.00;0.00;;;;;22.53;45.73;98837.00;6399539;22;45333;-75
2024/02/22 09:02:36;;;;;;;;;0.00;0.00;;;;;22.47;45.78;98819.38;6398233;22;45247;-75
2024/02/22 09:05:01;;;;;;;;;0.00;0.00;;;;;22.52;45.33;98820.31;6399547;22;45432;-75
2024/02/22 09:07:27;;;;;;;;;0.67;0.00;;;;;22.43;45.89;98797.84;6399570;22;45839;-75
2024/02/22 09:09:52;;;;;;;;;0.67;0.00;;;;;22.50;45.42;98797.72;6398967;22;58691;-73
2024/02/22 09:12:18;;;;;;;;;1.00;0.00;;;;;22.49;45.39;98794.25;6399448;22;52599;-75
2024/02/22 09:14:43;;;;;;;;;0.67;0.00;;;;;22.49;45.62;98788.97;6399629;22;45406;-75
2024/02/22 09:17:08;;;;;;;;;0.00;0.00;;;;;22.50;45.52;98777.34;6399905;22;45299;-75
2024/02/22 09:19:33;;;;;;;;;0.00;0.00;;;;;22.52;45.39;98775.25;6398548;22;55016;-72
2024/02/22 09:22:02;;;;;;;;;0.00;0.00;;;;;22.53;45.42;98765.47;6399575;22;45336;-74
2024/02/22 09:24:29;;;;;;;;;0.00;0.00;;;;;22.52;45.36;98740.81;6399462;22;45494;-74
2024/02/22 09:26:55;;;;;;;;;1.00;0.00;;;;;22.54;45.91;98745.84;6398724;22;45949;-74
2024/02/22 09:29:21;;;;;;;;;0.00;0.00;;;;;22.54;45.38;98731.78;6399728;22;45367;-74
2024/02/22 09:31:46;;;;;;;;;0.00;0.00;;;;;22.55;45.41;98726.28;6399729;22;45432;-75
2024/02/22 09:34:11;;;;;;;;;0.00;0.00;;;;;22.55;46.05;98712.22;6399606;22;51598;-72
2024/02/22 09:36:36;;;;;;;;;0.00;0.00;;;;;22.56;45.56;98704.00;6399105;22;45991;-74
2024/02/22 09:39:03;;;;;;;;;0.00;0.00;;;;;22.56;45.50;98698.72;6398810;22;60966;-74
2024/02/22 09:41:29;;;;;;;;;0.00;0.00;;;;;22.55;45.62;98689.16;6399929;22;45366;-74
2024/02/22 09:43:56;;;;;;;;;1.00;0.00;;;;;22.57;45.37;98686.28;6399117;22;45521;-75
2024/02/22 09:46:22;;;;;;;;;1.67;0.00;;;;;22.58;45.91;98677.28;6399020;22;47099;-75
2024/02/22 09:48:48;;;;;;;;;0.00;0.00;;;;;22.57;45.50;98657.13;6399505;22;45435;-73
2024/02/22 09:51:14;;;;;;;;;0.00;0.00;;;;;22.57;46.07;98663.22;6399225;22;45230;-74
2024/02/22 09:53:39;;;;;;;;;0.00;0.00;;;;;22.52;46.16;98648.06;6398933;22;45390;-75
2024/02/22 09:56:08;;;;;;;;;0.00;0.00;;;;;22.45;45.52;98636.78;6398488;22;47014;-74
2024/02/22 09:58:33;;;;;;;;;0.67;0.00;;;;;22.51;45.74;98638.47;6399270;22;45343;-75
2024/02/22 10:01:00;;;;;;;;;1.00;1.00;;;;;22.60;45.53;98643.41;6398629;22;48598;-75
2024/02/22 10:03:32;;;;;;;;;0.00;0.00;;;;;22.58;45.63;98635.69;6398727;22;45361;-74
2024/02/22 10:05:58;;;;;;;;;0.00;0.00;;;;;22.48;46.08;98611.66;6399565;22;45948;-75
2024/02/22 10:08:24;;;;;;;;;0.00;0.00;;;;;22.58;45.64;98621.63;6399418;22;45381;-74
2024/02/22 10:10:50;;;;;;;;;0.00;0.00;;;;;22.54;45.42;98605.41;6399087;22;45253;-75
2024/02/22 10:13:19;;;;;;;;;0.33;0.00;;;;;22.61;45.73;98610.56;6370618;22;45349;-75
2024/02/22 10:15:45;;;;;;;;;0.00;0.00;;;;;22.60;46.05;98601.00;6398958;22;46183;-73
2024/02/22 10:18:10;;;;;;;;;0.00;0.00;;;;;22.60;45.65;98590.41;6399311;22;45204;-74
2024/02/22 10:20:36;;;;;;;;;0.00;0.00;;;;;22.59;46.08;98588.78;6399914;22;45215;-74
2024/02/22 10:23:09;;;;;;;;;0.00;0.00;;;;;22.59;45.66;98586.13;6399030;22;45252;-74
2024/02/22 10:25:36;;;;;;;;;0.00;0.00;;;;;22.61;45.91;98576.13;6398894;22;46921;-74
2024/02/22 10:28:02;;;;;;;;;0.00;0.00;;;;;22.61;45.99;98563.66;6398223;22;45342;-73
2024/02/22 10:30:28;;;;;;;;;0.00;0.00;;;;;22.55;45.41;98546.06;6398872;22;45398;-74
2024/02/22 10:32:59;;;;;;;;;0.00;0.00;;;;;22.58;45.60;98534.19;6399516;22;45402;-74
2024/02/22 10:35:25;;;;;;;;;0.00;0.00;;;;;22.64;45.78;98527.91;6398960;22;47130;-74
2024/02/22 10:37:54;;;;;;;;;0.00;0.00;;;;;22.64;46.09;98525.25;6399042;22;45364;-75
2024/02/22 10:40:20;;;;;;;;;0.00;0.00;;;;;22.65;45.29;98526.06;6398352;22;45279;-75
2024/02/22 10:42:49;;;;;;;;;0.00;0.00;;;;;22.66;45.79;98509.13;6398566;22;45406;-75
2024/02/22 10:45:14;;;;;;;;;0.00;0.00;;;;;22.67;45.40;98511.53;6399131;22;45314;-75
2024/02/22 10:47:40;;;;;;;;;0.00;0.00;;;;;22.68;45.83;98509.69;6397086;22;45366;-74
2024/02/22 10:50:06;;;;;;;;;0.00;0.00;;;;;22.69;46.03;98490.09;6370979;22;45166;-74
2024/02/22 10:52:42;;;;;;;;;0.00;0.00;;;;;22.66;45.60;98474.69;6370434;22;45533;-74
2024/02/22 10:55:15;;;;;;;;;0.00;0.00;;;;;22.71;45.40;98472.13;6397831;22;47411;-74
2024/02/22 10:57:45;;;;;;;;;0.00;0.00;;;;;22.64;45.82;98459.00;6398638;22;45645;-75
2024/02/22 11:00:11;;;;;;;;;0.00;0.00;;;;;22.71;45.39;98461.53;6370594;22;45273;-72
2024/02/22 11:02:37;;;;;;;;;0.00;0.00;;;;;22.65;45.59;98444.72;6398105;22;45319;-73
2024/02/22 11:05:03;;;;;;;;;0.00;0.00;;;;;22.73;45.98;98446.19;6398925;22;45446;-75
2024/02/22 11:07:29;;;;;;;;;0.00;0.00;;;;;22.73;45.33;98427.63;6399411;22;45287;-74
2024/02/22 11:10:06;;;;;;;;;0.00;0.00;;;;;22.73;46.01;98420.47;6399718;22;45251;-74
2024/02/22 11:12:32;;;;;;;;;0.00;0.00;;;;;22.73;45.99;98415.19;6400490;22;45615;-74
2024/02/22 11:15:06;;;;;;;;;0.00;0.00;;;;;22.74;45.93;98410.69;6400160;22;45277;-75
2024/02/22 11:17:31;;;;;;;;;0.00;0.00;;;;;22.69;45.51;98378.78;6399692;22;45264;-73
2024/02/22 11:20:05;;;;;;;;;2.33;0.00;;;;;22.77;45.82;98382.88;6399916;22;45279;-72
2024/02/22 11:22:34;;;;;;;;;0.67;0.67;;;;;22.77;45.67;98375.72;6400074;22;45410;-74
2024/02/22 11:24:59;;;;;;;;;0.00;0.00;;;;;22.78;45.90;98377.31;6399301;22;46953;-76
2024/02/22 11:27:24;;;;;;;;;0.00;0.00;;;;;22.73;45.63;98364.00;6399519;22;45382;-75
2024/02/22 11:29:50;;;;;;;;;0.00;0.00;;;;;22.79;45.50;98352.44;6399459;22;45641;-76